sensor_id;sensor_type;location;lat;lon;timestamp;temperature;humidity
12446;DHT22;6287;50.984;7.022;2023-06-14T00:00:37;18.20;79.20
12446;DHT22;6287;50.984;7.022;2023-06-14T00:03:07;18.20;80.70
12446;DHT22;6287;50.984;7.022;2023-06-14T00:05:35;18.10;80.80
12446;DHT22;6287;50.984;7.022;2023-06-14T00:08:09;18.00;82.30
12446;DHT22;6287;50.984;7.022;2023-06-14T00:10:36;17.90;83.30
12446;DHT22;6287;50.984;7.022;2023-06-14T00:13:05;17.90;83.80
12446;DHT22;6287;50.984;7.022;2023-06-14T00:15:35;17.80;84.70
12446;DHT22;6287;50.984;7.022;2023-06-14T00:18:01;17.70;84.60
12446;DHT22;6287;50.984;7.022;2023-06-14T00:20:31;17.60;86.30
12446;DHT22;6287;50.984;7.022;2023-06-14T00:22:58;17.60;86.80
12446;DHT22;6287;50.984;7.022;2023-06-14T00:25:24;17.70;88.30
12446;DHT22;6287;50.984;7.022;2023-06-14T00:27:56;17.40;89.40
12446;DHT22;6287;50.984;7.022;2023-06-14T00:32:52;17.30;90.50
12446;DHT22;6287;50.984;7.022;2023-06-14T00:35:17;17.20;90.30
12446;DHT22;6287;50.984;7.022;2023-06-14T00:37:45;17.20;91.30
12446;DHT22;6287;50.984;7.022;2023-06-14T00:40:20;17.20;91.50
12446;DHT22;6287;50.984;7.022;2023-06-14T00:42:45;17.30;92.30
12446;DHT22;6287;50.984;7.022;2023-06-14T00:45:11;17.10;92.40
12446;DHT22;6287;50.984;7.022;2023-06-14T00:50:06;16.90;92.10
12446;DHT22;6287;50.984;7.022;2023-06-14T00:52:34;16.90;93.70
12446;DHT22;6287;50.984;7.022;2023-06-14T00:55:05;16.90;93.70
12446;DHT22;6287;50.984;7.022;2023-06-14T00:57:32;16.80;94.30
12446;DHT22;6287;50.984;7.022;2023-06-14T00:59:58;16.80;94.00
12446;DHT22;6287;50.984;7.022;2023-06-14T01:02:24;16.70;94.90
12446;DHT22;6287;50.984;7.022;2023-06-14T01:04:50;16.70;95.50
12446;DHT22;6287;50.984;7.022;2023-06-14T01:10:28;16.60;96.40
12446;DHT22;6287;50.984;7.022;2023-06-14T01:15:54;16.50;96.70
12446;DHT22;6287;50.984;7.022;2023-06-14T01:18:23;16.40;97.40
12446;DHT22;6287;50.984;7.022;2023-06-14T01:20:51;16.40;97.40
12446;DHT22;6287;50.984;7.022;2023-06-14T01:23:21;16.30;98.10
12446;DHT22;6287;50.984;7.022;2023-06-14T01:25:48;16.30;98.30
12446;DHT22;6287;50.984;7.022;2023-06-14T01:28:18;16.20;98.30
12446;DHT22;6287;50.984;7.022;2023-06-14T01:30:50;16.80;99.00
12446;DHT22;6287;50.984;7.022;2023-06-14T01:33:22;16.20;99.80
12446;DHT22;6287;50.984;7.022;2023-06-14T01:35:52;16.20;99.00
12446;DHT22;6287;50.984;7.022;2023-06-14T01:38:25;16.40;99.90
12446;DHT22;6287;50.984;7.022;2023-06-14T01:40:55;16.00;99.90
12446;DHT22;6287;50.984;7.022;2023-06-14T01:43:23;15.90;99.90
12446;DHT22;6287;50.984;7.022;2023-06-14T01:45:53;15.90;99.90
12446;DHT22;6287;50.984;7.022;2023-06-14T01:48:22;15.90;99.90
12446;DHT22;6287;50.984;7.022;2023-06-14T01:50:52;15.80;99.90
12446;DHT22;6287;50.984;7.022;2023-06-14T01:53:18;15.80;99.90
12446;DHT22;6287;50.984;7.022;2023-06-14T01:55:46;15.70;99.90
12446;DHT22;6287;50.984;7.022;2023-06-14T01:58:14;15.90;99.90
12446;DHT22;6287;50.984;7.022;2023-06-14T02:00:44;15.70;99.90
12446;DHT22;6287;50.984;7.022;2023-06-14T02:03:12;15.90;99.90
12446;DHT22;6287;50.984;7.022;2023-06-14T02:05:38;15.60;99.90
12446;DHT22;6287;50.984;7.022;2023-06-14T02:08:05;16.20;99.90
12446;DHT22;6287;50.984;7.022;2023-06-14T02:12:57;15.60;99.90
12446;DHT22;6287;50.984;7.022;2023-06-14T02:17:49;15.50;99.90
12446;DHT22;6287;50.984;7.022;2023-06-14T02:20:15;15.50;99.90
12446;DHT22;6287;50.984;7.022;2023-06-14T02:22:45;15.40;99.90
12446;DHT22;6287;50.984;7.022;2023-06-14T02:25:10;15.40;99.90
12446;DHT22;6287;50.984;7.022;2023-06-14T02:27:38;15.40;99.90
12446;DHT22;6287;50.984;7.022;2023-06-14T02:30:07;15.20;99.90
12446;DHT22;6287;50.984;7.022;2023-06-14T02:32:35;15.30;99.90
12446;DHT22;6287;50.984;7.022;2023-06-14T02:35:02;15.20;99.90
12446;DHT22;6287;50.984;7.022;2023-06-14T02:37:27;15.40;99.90
12446;DHT22;6287;50.984;7.022;2023-06-14T02:39:53;15.20;99.90
12446;DHT22;6287;50.984;7.022;2023-06-14T02:42:23;15.50;99.90
12446;DHT22;6287;50.984;7.022;2023-06-14T02:44:51;15.10;99.90
12446;DHT22;6287;50.984;7.022;2023-06-14T02:47:18;15.20;99.90
12446;DHT22;6287;50.984;7.022;2023-06-14T02:49:44;15.20;99.90
12446;DHT22;6287;50.984;7.022;2023-06-14T02:52:12;15.20;99.90
12446;DHT22;6287;50.984;7.022;2023-06-14T02:54:41;15.20;99.90
12446;DHT22;6287;50.984;7.022;2023-06-14T02:59:35;15.20;99.90
12446;DHT22;6287;50.984;7.022;2023-06-14T03:02:01;14.90;99.90
12446;DHT22;6287;50.984;7.022;2023-06-14T03:04:26;15.10;99.90
12446;DHT22;6287;50.984;7.022;2023-06-14T03:06:54;15.00;99.90
12446;DHT22;6287;50.984;7.022;2023-06-14T03:09:22;14.90;99.90
12446;DHT22;6287;50.984;7.022;2023-06-14T03:11:53;15.00;99.90
12446;DHT22;6287;50.984;7.022;2023-06-14T03:14:18;14.90;99.90
12446;DHT22;6287;50.984;7.022;2023-06-14T03:16:49;14.90;99.90
12446;DHT22;6287;50.984;7.022;2023-06-14T03:19:22;15.10;99.90
12446;DHT22;6287;50.984;7.022;2023-06-14T03:21:48;14.80;99.90
12446;DHT22;6287;50.984;7.022;2023-06-14T03:24:16;14.90;99.90
12446;DHT22;6287;50.984;7.022;2023-06-14T03:26:42;14.70;99.90
12446;DHT22;6287;50.984;7.022;2023-06-14T03:29:10;14.90;99.90
12446;DHT22;6287;50.984;7.022;2023-06-14T03:31:58;14.70;99.90
12446;DHT22;6287;50.984;7.022;2023-06-14T03:34:24;14.70;99.90
12446;DHT22;6287;50.984;7.022;2023-06-14T03:36:50;14.70;99.90
12446;DHT22;6287;50.984;7.022;2023-06-14T03:39:15;14.70;99.90
12446;DHT22;6287;50.984;7.022;2023-06-14T03:41:43;14.70;99.90
12446;DHT22;6287;50.984;7.022;2023-06-14T03:44:09;14.80;99.90
12446;DHT22;6287;50.984;7.022;2023-06-14T03:46:36;14.70;99.90
12446;DHT22;6287;50.984;7.022;2023-06-14T03:49:04;14.60;99.90
12446;DHT22;6287;50.984;7.022;2023-06-14T03:51:32;14.80;99.90
12446;DHT22;6287;50.984;7.022;2023-06-14T03:54:00;14.70;99.90
12446;DHT22;6287;50.984;7.022;2023-06-14T03:56:28;14.70;99.90
12446;DHT22;6287;50.984;7.022;2023-06-14T03:58:58;14.60;99.90
12446;DHT22;6287;50.984;7.022;2023-06-14T04:01:26;15.20;99.90
12446;DHT22;6287;50.984;7.022;2023-06-14T04:03:55;14.70;99.90
12446;DHT22;6287;50.984;7.022;2023-06-14T04:06:21;15.20;99.90
12446;DHT22;6287;50.984;7.022;2023-06-14T04:08:50;14.90;99.90
12446;DHT22;6287;50.984;7.022;2023-06-14T04:11:18;14.70;99.90
12446;DHT22;6287;50.984;7.022;2023-06-14T04:13:47;14.60;99.90
12446;DHT22;6287;50.984;7.022;2023-06-14T04:16:14;14.80;99.90
12446;DHT22;6287;50.984;7.022;2023-06-14T04:18:39;14.80;99.90
12446;DHT22;6287;50.984;7.022;2023-06-14T04:21:05;15.00;99.90
12446;DHT22;6287;50.984;7.022;2023-06-14T04:23:31;14.90;99.90
12446;DHT22;6287;50.984;7.022;2023-06-14T04:25:59;15.00;99.90
12446;DHT22;6287;50.984;7.022;2023-06-14T04:28:27;15.10;99.90
12446;DHT22;6287;50.984;7.022;2023-06-14T04:30:56;15.10;99.90
12446;DHT22;6287;50.984;7.022;2023-06-14T04:33:23;15.10;99.90
12446;DHT22;6287;50.984;7.022;2023-06-14T04:35:53;15.20;99.90
12446;DHT22;6287;50.984;7.022;2023-06-14T04:38:19;15.30;99.90
12446;DHT22;6287;50.984;7.022;2023-06-14T04:40:54;15.30;99.90
12446;DHT22;6287;50.984;7.022;2023-06-14T04:43:22;15.40;99.90
12446;DHT22;6287;50.984;7.022;2023-06-14T04:45:51;15.40;99.90
12446;DHT22;6287;50.984;7.022;2023-06-14T04:48:17;15.60;99.90
12446;DHT22;6287;50.984;7.022;2023-06-14T04:50:46;15.40;99.90
12446;DHT22;6287;50.984;7.022;2023-06-14T04:53:12;15.70;99.90
12446;DHT22;6287;50.984;7.022;2023-06-14T04:55:40;15.60;99.90
12446;DHT22;6287;50.984;7.022;2023-06-14T04:58:12;15.80;99.90
12446;DHT22;6287;50.984;7.022;2023-06-14T05:00:38;15.80;99.90
12446;DHT22;6287;50.984;7.022;2023-06-14T05:03:07;15.90;99.90
12446;DHT22;6287;50.984;7.022;2023-06-14T05:05:40;15.90;99.90
12446;DHT22;6287;50.984;7.022;2023-06-14T05:08:07;16.10;99.90
12446;DHT22;6287;50.984;7.022;2023-06-14T05:10:32;16.10;99.90
12446;DHT22;6287;50.984;7.022;2023-06-14T05:13:01;16.30;99.90
12446;DHT22;6287;50.984;7.022;2023-06-14T05:15:27;16.40;99.90
12446;DHT22;6287;50.984;7.022;2023-06-14T05:17:54;16.40;99.90
12446;DHT22;6287;50.984;7.022;2023-06-14T05:20:27;16.50;99.90
12446;DHT22;6287;50.984;7.022;2023-06-14T05:22:55;16.70;99.90
12446;DHT22;6287;50.984;7.022;2023-06-14T05:25:22;16.90;99.90
12446;DHT22;6287;50.984;7.022;2023-06-14T05:27:50;16.90;99.90
12446;DHT22;6287;50.984;7.022;2023-06-14T05:30:18;17.00;99.90
12446;DHT22;6287;50.984;7.022;2023-06-14T05:32:46;17.10;99.90
12446;DHT22;6287;50.984;7.022;2023-06-14T05:35:14;17.20;99.90
12446;DHT22;6287;50.984;7.022;2023-06-14T05:37:40;17.30;99.90
12446;DHT22;6287;50.984;7.022;2023-06-14T05:40:06;17.50;99.90
12446;DHT22;6287;50.984;7.022;2023-06-14T05:42:33;17.50;99.90
12446;DHT22;6287;50.984;7.022;2023-06-14T05:44:58;18.00;99.90
12446;DHT22;6287;50.984;7.022;2023-06-14T05:47:26;17.80;99.90
12446;DHT22;6287;50.984;7.022;2023-06-14T05:49:55;17.90;99.90
12446;DHT22;6287;50.984;7.022;2023-06-14T05:52:21;18.00;99.60
12446;DHT22;6287;50.984;7.022;2023-06-14T05:54:51;18.10;98.70
12446;DHT22;6287;50.984;7.022;2023-06-14T05:57:19;18.30;97.90
12446;DHT22;6287;50.984;7.022;2023-06-14T05:59:45;18.50;96.80
12446;DHT22;6287;50.984;7.022;2023-06-14T06:02:10;18.50;96.00
12446;DHT22;6287;50.984;7.022;2023-06-14T06:04:36;18.60;96.20
12446;DHT22;6287;50.984;7.022;2023-06-14T06:07:02;18.80;95.40
12446;DHT22;6287;50.984;7.022;2023-06-14T06:09:30;18.90;95.00
12446;DHT22;6287;50.984;7.022;2023-06-14T06:11:55;19.00;95.50
12446;DHT22;6287;50.984;7.022;2023-06-14T06:14:24;19.20;95.70
12446;DHT22;6287;50.984;7.022;2023-06-14T06:16:50;19.30;94.80
12446;DHT22;6287;50.984;7.022;2023-06-14T06:19:17;19.40;94.30
12446;DHT22;6287;50.984;7.022;2023-06-14T06:21:45;19.50;94.40
12446;DHT22;6287;50.984;7.022;2023-06-14T06:24:13;19.60;94.50
12446;DHT22;6287;50.984;7.022;2023-06-14T06:26:38;19.80;94.40
12446;DHT22;6287;50.984;7.022;2023-06-14T06:29:07;19.90;93.20
12446;DHT22;6287;50.984;7.022;2023-06-14T06:31:33;20.10;92.00
12446;DHT22;6287;50.984;7.022;2023-06-14T06:34:03;20.20;91.80
12446;DHT22;6287;50.984;7.022;2023-06-14T06:36:28;20.30;91.80
12446;DHT22;6287;50.984;7.022;2023-06-14T06:38:54;20.50;92.40
12446;DHT22;6287;50.984;7.022;2023-06-14T06:41:19;20.70;91.80
12446;DHT22;6287;50.984;7.022;2023-06-14T06:43:49;20.80;92.40
12446;DHT22;6287;50.984;7.022;2023-06-14T06:46:15;21.00;90.90
12446;DHT22;6287;50.984;7.022;2023-06-14T06:48:44;21.10;90.20
12446;DHT22;6287;50.984;7.022;2023-06-14T06:51:09;21.20;89.40
12446;DHT22;6287;50.984;7.022;2023-06-14T06:53:35;21.40;88.50
12446;DHT22;6287;50.984;7.022;2023-06-14T06:56:01;21.50;89.80
12446;DHT22;6287;50.984;7.022;2023-06-14T06:58:29;21.70;89.00
12446;DHT22;6287;50.984;7.022;2023-06-14T07:00:59;21.90;87.70
12446;DHT22;6287;50.984;7.022;2023-06-14T07:03:27;22.00;86.80
12446;DHT22;6287;50.984;7.022;2023-06-14T07:05:58;22.20;85.40
12446;DHT22;6287;50.984;7.022;2023-06-14T07:08:25;22.40;83.40
12446;DHT22;6287;50.984;7.022;2023-06-14T07:10:52;22.50;84.20
12446;DHT22;6287;50.984;7.022;2023-06-14T07:13:20;22.60;81.30
12446;DHT22;6287;50.984;7.022;2023-06-14T07:15:48;22.70;81.30
12446;DHT22;6287;50.984;7.022;2023-06-14T07:18:21;22.80;80.10
12446;DHT22;6287;50.984;7.022;2023-06-14T07:20:47;22.90;80.20
12446;DHT22;6287;50.984;7.022;2023-06-14T07:23:15;23.10;79.70
12446;DHT22;6287;50.984;7.022;2023-06-14T07:25:44;23.20;80.00
12446;DHT22;6287;50.984;7.022;2023-06-14T07:28:09;23.40;78.50
12446;DHT22;6287;50.984;7.022;2023-06-14T07:30:35;23.50;76.60
12446;DHT22;6287;50.984;7.022;2023-06-14T07:33:01;23.60;74.90
12446;DHT22;6287;50.984;7.022;2023-06-14T07:35:29;23.80;72.70
12446;DHT22;6287;50.984;7.022;2023-06-14T07:37:54;23.90;72.30
12446;DHT22;6287;50.984;7.022;2023-06-14T07:40:22;23.90;69.10
12446;DHT22;6287;50.984;7.022;2023-06-14T07:42:50;24.00;67.60
12446;DHT22;6287;50.984;7.022;2023-06-14T07:45:16;24.10;69.20
12446;DHT22;6287;50.984;7.022;2023-06-14T07:47:46;24.10;67.50
12446;DHT22;6287;50.984;7.022;2023-06-14T07:50:15;24.10;66.20
12446;DHT22;6287;50.984;7.022;2023-06-14T07:52:40;24.20;67.00
12446;DHT22;6287;50.984;7.022;2023-06-14T07:55:11;24.30;66.90
12446;DHT22;6287;50.984;7.022;2023-06-14T07:57:39;24.40;68.80
12446;DHT22;6287;50.984;7.022;2023-06-14T08:00:08;24.50;66.70
12446;DHT22;6287;50.984;7.022;2023-06-14T08:02:35;24.70;64.90
12446;DHT22;6287;50.984;7.022;2023-06-14T08:05:04;24.70;62.80
12446;DHT22;6287;50.984;7.022;2023-06-14T08:07:30;24.80;61.80
12446;DHT22;6287;50.984;7.022;2023-06-14T08:09:55;24.90;59.50
12446;DHT22;6287;50.984;7.022;2023-06-14T08:12:21;25.00;59.50
12446;DHT22;6287;50.984;7.022;2023-06-14T08:14:49;25.10;58.00
12446;DHT22;6287;50.984;7.022;2023-06-14T08:17:15;25.30;59.40
12446;DHT22;6287;50.984;7.022;2023-06-14T08:19:41;25.40;58.10
12446;DHT22;6287;50.984;7.022;2023-06-14T08:22:11;25.60;59.90
12446;DHT22;6287;50.984;7.022;2023-06-14T08:24:40;25.70;57.40
12446;DHT22;6287;50.984;7.022;2023-06-14T08:27:08;25.80;59.40
12446;DHT22;6287;50.984;7.022;2023-06-14T08:29:36;25.90;57.20
12446;DHT22;6287;50.984;7.022;2023-06-14T08:32:07;25.90;56.50
12446;DHT22;6287;50.984;7.022;2023-06-14T08:34:33;25.90;57.60
12446;DHT22;6287;50.984;7.022;2023-06-14T08:37:03;26.00;56.90
12446;DHT22;6287;50.984;7.022;2023-06-14T08:39:33;26.10;56.00
12446;DHT22;6287;50.984;7.022;2023-06-14T08:41:58;26.20;56.20
12446;DHT22;6287;50.984;7.022;2023-06-14T08:44:28;26.10;54.90
12446;DHT22;6287;50.984;7.022;2023-06-14T08:46:56;26.00;56.90
12446;DHT22;6287;50.984;7.022;2023-06-14T08:49:23;26.10;57.60
12446;DHT22;6287;50.984;7.022;2023-06-14T08:51:56;26.20;55.30
12446;DHT22;6287;50.984;7.022;2023-06-14T08:54:28;26.40;56.50
12446;DHT22;6287;50.984;7.022;2023-06-14T08:57:02;26.50;54.50
12446;DHT22;6287;50.984;7.022;2023-06-14T08:59:29;26.70;53.70
12446;DHT22;6287;50.984;7.022;2023-06-14T09:02:01;26.70;53.90
12446;DHT22;6287;50.984;7.022;2023-06-14T09:04:28;26.90;54.30
12446;DHT22;6287;50.984;7.022;2023-06-14T09:09:21;27.10;54.90
12446;DHT22;6287;50.984;7.022;2023-06-14T09:11:51;27.20;54.10
12446;DHT22;6287;50.984;7.022;2023-06-14T09:14:19;27.40;53.10
12446;DHT22;6287;50.984;7.022;2023-06-14T09:16:44;27.40;52.60
12446;DHT22;6287;50.984;7.022;2023-06-14T09:19:24;27.30;52.80
12446;DHT22;6287;50.984;7.022;2023-06-14T09:21:55;27.30;53.10
12446;DHT22;6287;50.984;7.022;2023-06-14T09:24:21;27.40;52.40
12446;DHT22;6287;50.984;7.022;2023-06-14T09:26:53;27.50;54.10
12446;DHT22;6287;50.984;7.022;2023-06-14T09:29:18;27.40;53.00
12446;DHT22;6287;50.984;7.022;2023-06-14T09:31:47;27.60;51.20
12446;DHT22;6287;50.984;7.022;2023-06-14T09:34:13;27.70;51.40
12446;DHT22;6287;50.984;7.022;2023-06-14T09:36:40;27.90;51.10
12446;DHT22;6287;50.984;7.022;2023-06-14T09:39:06;28.10;53.40
12446;DHT22;6287;50.984;7.022;2023-06-14T09:43:59;28.30;52.00
12446;DHT22;6287;50.984;7.022;2023-06-14T09:48:58;28.70;51.10
12446;DHT22;6287;50.984;7.022;2023-06-14T09:51:27;28.80;52.10
12446;DHT22;6287;50.984;7.022;2023-06-14T09:53:59;28.70;49.90
12446;DHT22;6287;50.984;7.022;2023-06-14T09:58:58;29.00;51.40
12446;DHT22;6287;50.984;7.022;2023-06-14T10:01:33;29.00;52.00
12446;DHT22;6287;50.984;7.022;2023-06-14T10:04:04;29.20;51.70
12446;DHT22;6287;50.984;7.022;2023-06-14T10:06:39;29.30;50.30
12446;DHT22;6287;50.984;7.022;2023-06-14T10:09:09;29.50;50.00
12446;DHT22;6287;50.984;7.022;2023-06-14T10:11:38;29.60;49.20
12446;DHT22;6287;50.984;7.022;2023-06-14T10:14:10;29.70;50.90
12446;DHT22;6287;50.984;7.022;2023-06-14T10:16:56;29.80;50.50
12446;DHT22;6287;50.984;7.022;2023-06-14T10:19:32;29.80;48.20
12446;DHT22;6287;50.984;7.022;2023-06-14T10:24:32;29.50;47.70
12446;DHT22;6287;50.984;7.022;2023-06-14T10:27:00;29.40;48.60
12446;DHT22;6287;50.984;7.022;2023-06-14T10:29:27;29.30;49.30
12446;DHT22;6287;50.984;7.022;2023-06-14T10:31:58;29.30;49.60
12446;DHT22;6287;50.984;7.022;2023-06-14T10:34:28;29.40;50.00
12446;DHT22;6287;50.984;7.022;2023-06-14T10:37:05;29.50;49.70
12446;DHT22;6287;50.984;7.022;2023-06-14T10:39:33;29.70;47.60
12446;DHT22;6287;50.984;7.022;2023-06-14T10:42:02;30.10;48.20
12446;DHT22;6287;50.984;7.022;2023-06-14T10:47:07;30.30;49.10
12446;DHT22;6287;50.984;7.022;2023-06-14T10:49:38;30.50;48.50
12446;DHT22;6287;50.984;7.022;2023-06-14T10:52:16;30.70;46.70
12446;DHT22;6287;50.984;7.022;2023-06-14T10:57:31;30.50;46.40
12446;DHT22;6287;50.984;7.022;2023-06-14T11:00:00;30.30;50.30
12446;DHT22;6287;50.984;7.022;2023-06-14T11:05:26;30.70;48.10
12446;DHT22;6287;50.984;7.022;2023-06-14T11:13:17;30.40;48.50
12446;DHT22;6287;50.984;7.022;2023-06-14T11:15:48;30.40;48.90
12446;DHT22;6287;50.984;7.022;2023-06-14T11:18:18;30.70;48.90
12446;DHT22;6287;50.984;7.022;2023-06-14T11:20:46;30.60;50.10
12446;DHT22;6287;50.984;7.022;2023-06-14T11:25:40;30.60;50.20
12446;DHT22;6287;50.984;7.022;2023-06-14T11:28:11;30.60;47.90
12446;DHT22;6287;50.984;7.022;2023-06-14T11:30:39;30.50;49.30
12446;DHT22;6287;50.984;7.022;2023-06-14T11:33:09;30.70;50.70
12446;DHT22;6287;50.984;7.022;2023-06-14T11:35:36;31.00;51.00
12446;DHT22;6287;50.984;7.022;2023-06-14T11:38:05;31.20;49.20
12446;DHT22;6287;50.984;7.022;2023-06-14T11:40:31;31.20;51.00
12446;DHT22;6287;50.984;7.022;2023-06-14T11:43:01;31.10;49.90
12446;DHT22;6287;50.984;7.022;2023-06-14T11:45:28;31.30;48.00
12446;DHT22;6287;50.984;7.022;2023-06-14T11:47:55;31.30;48.50
12446;DHT22;6287;50.984;7.022;2023-06-14T11:50:24;31.40;48.20
12446;DHT22;6287;50.984;7.022;2023-06-14T11:53:00;31.40;46.20
12446;DHT22;6287;50.984;7.022;2023-06-14T11:55:38;31.30;46.70
12446;DHT22;6287;50.984;7.022;2023-06-14T11:58:11;31.20;45.90
12446;DHT22;6287;50.984;7.022;2023-06-14T12:00:39;31.00;45.70
12446;DHT22;6287;50.984;7.022;2023-06-14T12:03:08;30.90;46.70
12446;DHT22;6287;50.984;7.022;2023-06-14T12:05:39;31.00;47.40
12446;DHT22;6287;50.984;7.022;2023-06-14T12:08:07;31.50;48.00
12446;DHT22;6287;50.984;7.022;2023-06-14T12:10:39;31.90;46.30
12446;DHT22;6287;50.984;7.022;2023-06-14T12:15:35;32.40;44.00
12446;DHT22;6287;50.984;7.022;2023-06-14T12:18:06;32.70;44.40
12446;DHT22;6287;50.984;7.022;2023-06-14T12:20:34;32.80;43.90
12446;DHT22;6287;50.984;7.022;2023-06-14T12:23:03;32.50;42.70
12446;DHT22;6287;50.984;7.022;2023-06-14T12:25:30;32.50;43.00
12446;DHT22;6287;50.984;7.022;2023-06-14T12:27:58;32.50;42.20
12446;DHT22;6287;50.984;7.022;2023-06-14T12:30:24;32.50;42.80
12446;DHT22;6287;50.984;7.022;2023-06-14T12:32:49;32.80;43.10
12446;DHT22;6287;50.984;7.022;2023-06-14T12:35:17;33.00;41.80
12446;DHT22;6287;50.984;7.022;2023-06-14T12:37:46;32.70;43.00
12446;DHT22;6287;50.984;7.022;2023-06-14T12:40:14;32.30;42.30
12446;DHT22;6287;50.984;7.022;2023-06-14T12:42:44;31.80;43.70
12446;DHT22;6287;50.984;7.022;2023-06-14T12:45:10;31.90;43.10
12446;DHT22;6287;50.984;7.022;2023-06-14T12:47:36;31.80;44.90
12446;DHT22;6287;50.984;7.022;2023-06-14T12:50:04;31.30;43.90
12446;DHT22;6287;50.984;7.022;2023-06-14T12:52:35;30.70;44.80
12446;DHT22;6287;50.984;7.022;2023-06-14T12:55:05;30.30;45.30
12446;DHT22;6287;50.984;7.022;2023-06-14T12:57:31;30.70;46.90
12446;DHT22;6287;50.984;7.022;2023-06-14T12:59:59;31.70;46.60
12446;DHT22;6287;50.984;7.022;2023-06-14T13:02:27;32.00;43.10
12446;DHT22;6287;50.984;7.022;2023-06-14T13:04:54;31.70;43.40
12446;DHT22;6287;50.984;7.022;2023-06-14T13:07:20;31.00;43.90
12446;DHT22;6287;50.984;7.022;2023-06-14T13:09:45;30.30;44.80
12446;DHT22;6287;50.984;7.022;2023-06-14T13:12:14;29.80;46.00
12446;DHT22;6287;50.984;7.022;2023-06-14T13:14:44;29.30;46.00
12446;DHT22;6287;50.984;7.022;2023-06-14T13:17:14;29.20;47.80
12446;DHT22;6287;50.984;7.022;2023-06-14T13:19:42;30.10;47.90
12446;DHT22;6287;50.984;7.022;2023-06-14T13:22:10;31.00;45.70
12446;DHT22;6287;50.984;7.022;2023-06-14T13:24:36;31.20;45.60
12446;DHT22;6287;50.984;7.022;2023-06-14T13:27:02;30.90;43.60
12446;DHT22;6287;50.984;7.022;2023-06-14T13:29:30;30.50;44.90
12446;DHT22;6287;50.984;7.022;2023-06-14T13:31:58;30.40;46.40
12446;DHT22;6287;50.984;7.022;2023-06-14T13:34:25;30.30;45.60
12446;DHT22;6287;50.984;7.022;2023-06-14T13:36:50;30.10;44.40
12446;DHT22;6287;50.984;7.022;2023-06-14T13:39:16;29.70;44.70
12446;DHT22;6287;50.984;7.022;2023-06-14T13:41:44;29.60;45.70
12446;DHT22;6287;50.984;7.022;2023-06-14T13:44:10;30.10;46.50
12446;DHT22;6287;50.984;7.022;2023-06-14T13:46:40;31.10;43.10
12446;DHT22;6287;50.984;7.022;2023-06-14T13:49:08;31.20;44.00
12446;DHT22;6287;50.984;7.022;2023-06-14T13:51:33;31.70;43.80
12446;DHT22;6287;50.984;7.022;2023-06-14T13:54:00;32.10;43.20
12446;DHT22;6287;50.984;7.022;2023-06-14T13:56:26;31.70;43.70
12446;DHT22;6287;50.984;7.022;2023-06-14T13:58:52;31.60;44.50
12446;DHT22;6287;50.984;7.022;2023-06-14T14:01:18;31.30;44.10
12446;DHT22;6287;50.984;7.022;2023-06-14T14:03:49;30.80;43.40
12446;DHT22;6287;50.984;7.022;2023-06-14T14:06:15;30.80;45.20
12446;DHT22;6287;50.984;7.022;2023-06-14T14:08:44;31.40;44.90
12446;DHT22;6287;50.984;7.022;2023-06-14T14:11:10;32.20;43.30
12446;DHT22;6287;50.984;7.022;2023-06-14T14:13:36;32.40;41.60
12446;DHT22;6287;50.984;7.022;2023-06-14T14:16:04;32.50;42.30
12446;DHT22;6287;50.984;7.022;2023-06-14T14:18:32;32.20;41.90
12446;DHT22;6287;50.984;7.022;2023-06-14T14:21:00;31.60;41.90
12446;DHT22;6287;50.984;7.022;2023-06-14T14:23:28;31.10;43.80
12446;DHT22;6287;50.984;7.022;2023-06-14T14:25:56;30.80;43.30
12446;DHT22;6287;50.984;7.022;2023-06-14T14:28:22;30.70;44.30
12446;DHT22;6287;50.984;7.022;2023-06-14T14:30:55;30.60;42.90
12446;DHT22;6287;50.984;7.022;2023-06-14T14:33:21;31.00;42.20
12446;DHT22;6287;50.984;7.022;2023-06-14T14:35:49;31.40;40.60
12446;DHT22;6287;50.984;7.022;2023-06-14T14:38:18;31.90;40.50
12446;DHT22;6287;50.984;7.022;2023-06-14T14:40:44;32.20;40.30
12446;DHT22;6287;50.984;7.022;2023-06-14T14:43:12;32.50;41.00
12446;DHT22;6287;50.984;7.022;2023-06-14T14:45:38;32.90;41.60
12446;DHT22;6287;50.984;7.022;2023-06-14T14:48:07;33.30;40.50
12446;DHT22;6287;50.984;7.022;2023-06-14T14:50:33;33.60;39.30
12446;DHT22;6287;50.984;7.022;2023-06-14T14:53:02;33.70;38.30
12446;DHT22;6287;50.984;7.022;2023-06-14T14:55:30;33.50;38.50
12446;DHT22;6287;50.984;7.022;2023-06-14T14:58:00;33.50;39.50
12446;DHT22;6287;50.984;7.022;2023-06-14T15:00:26;33.50;39.00
12446;DHT22;6287;50.984;7.022;2023-06-14T15:02:54;32.80;38.50
12446;DHT22;6287;50.984;7.022;2023-06-14T15:05:22;32.10;40.30
12446;DHT22;6287;50.984;7.022;2023-06-14T15:07:49;32.20;41.00
12446;DHT22;6287;50.984;7.022;2023-06-14T15:10:21;32.50;39.60
12446;DHT22;6287;50.984;7.022;2023-06-14T15:12:47;32.60;39.50
12446;DHT22;6287;50.984;7.022;2023-06-14T15:15:17;32.30;39.10
12446;DHT22;6287;50.984;7.022;2023-06-14T15:17:43;31.90;40.30
12446;DHT22;6287;50.984;7.022;2023-06-14T15:20:09;31.40;40.50
12446;DHT22;6287;50.984;7.022;2023-06-14T15:22:40;31.50;41.20
12446;DHT22;6287;50.984;7.022;2023-06-14T15:25:08;32.00;40.90
12446;DHT22;6287;50.984;7.022;2023-06-14T15:27:34;32.50;40.50
12446;DHT22;6287;50.984;7.022;2023-06-14T15:29:59;32.90;39.60
12446;DHT22;6287;50.984;7.022;2023-06-14T15:32:27;33.30;38.60
12446;DHT22;6287;50.984;7.022;2023-06-14T15:34:55;33.30;38.70
12446;DHT22;6287;50.984;7.022;2023-06-14T15:37:20;32.80;38.00
12446;DHT22;6287;50.984;7.022;2023-06-14T15:39:50;32.20;40.50
12446;DHT22;6287;50.984;7.022;2023-06-14T15:42:16;31.70;41.20
12446;DHT22;6287;50.984;7.022;2023-06-14T15:44:41;31.50;40.50
12446;DHT22;6287;50.984;7.022;2023-06-14T15:47:08;31.90;40.80
12446;DHT22;6287;50.984;7.022;2023-06-14T15:49:35;32.10;40.00
12446;DHT22;6287;50.984;7.022;2023-06-14T15:52:00;32.00;39.00
12446;DHT22;6287;50.984;7.022;2023-06-14T15:54:28;31.30;39.30
12446;DHT22;6287;50.984;7.022;2023-06-14T15:56:56;30.50;40.60
12446;DHT22;6287;50.984;7.022;2023-06-14T15:59:24;30.00;41.40
12446;DHT22;6287;50.984;7.022;2023-06-14T16:01:53;29.70;41.90
12446;DHT22;6287;50.984;7.022;2023-06-14T16:04:19;29.40;42.00
12446;DHT22;6287;50.984;7.022;2023-06-14T16:06:46;29.40;43.20
12446;DHT22;6287;50.984;7.022;2023-06-14T16:09:12;29.90;43.30
12446;DHT22;6287;50.984;7.022;2023-06-14T16:11:42;30.30;41.00
12446;DHT22;6287;50.984;7.022;2023-06-14T16:14:10;30.90;40.70
12446;DHT22;6287;50.984;7.022;2023-06-14T16:16:40;31.30;39.80
12446;DHT22;6287;50.984;7.022;2023-06-14T16:19:07;31.30;40.40
12446;DHT22;6287;50.984;7.022;2023-06-14T16:21:33;32.00;39.10
12446;DHT22;6287;50.984;7.022;2023-06-14T16:24:02;32.20;40.00
12446;DHT22;6287;50.984;7.022;2023-06-14T16:26:28;31.90;39.30
12446;DHT22;6287;50.984;7.022;2023-06-14T16:28:53;31.80;40.00
12446;DHT22;6287;50.984;7.022;2023-06-14T16:31:19;31.10;40.40
12446;DHT22;6287;50.984;7.022;2023-06-14T16:33:47;30.80;41.40
12446;DHT22;6287;50.984;7.022;2023-06-14T16:41:11;31.10;40.90
12446;DHT22;6287;50.984;7.022;2023-06-14T16:43:38;31.00;38.90